createdAt,value
2023-05-06T00:05:25.189Z,87.30
2023-05-06T00:15:32.054Z,82.85
2023-05-06T00:25:34.626Z,80.18
2023-05-06T00:35:38.942Z,77.72
2023-05-06T00:45:41.123Z,76.45
2023-05-06T00:55:45.815Z,74.76
2023-05-06T01:06:19.990Z,73.89
2023-05-06T01:16:23.947Z,73.72
2023-05-06T01:26:33.444Z,73.45
2023-05-06T01:36:53.952Z,73.68
2023-05-06T01:46:57.786Z,73.53
2023-05-06T01:57:00.596Z,73.44
2023-05-06T02:07:08.712Z,73.64
2023-05-06T02:17:11.323Z,73.60
2023-05-06T02:27:16.053Z,73.79
2023-05-06T02:37:21.826Z,73.52
2023-05-06T02:47:26.837Z,73.85
2023-05-06T02:57:29.141Z,73.68
2023-05-06T03:07:36.842Z,73.89
2023-05-06T03:17:39.606Z,74.29
2023-05-06T03:27:42.742Z,74.20
2023-05-06T03:37:52.598Z,74.40
2023-05-06T03:47:57.809Z,74.81
2023-05-06T03:58:04.185Z,75.53
2023-05-06T04:08:06.637Z,75.51
2023-05-06T04:18:12.337Z,75.86
2023-05-06T04:28:19.985Z,75.94
2023-05-06T04:38:32.416Z,76.64
2023-05-06T04:48:35.856Z,77.01
2023-05-06T04:58:40.808Z,77.58
2023-05-06T05:08:45.519Z,78.15
2023-05-06T05:18:48.756Z,78.91
2023-05-06T05:28:57.562Z,79.47
2023-05-06T05:39:08.182Z,80.15
2023-05-06T05:49:19.906Z,80.49
2023-05-06T05:59:28.014Z,80.66
2023-05-06T06:09:34.574Z,80.15
2023-05-06T06:19:39.478Z,77.54
2023-05-06T06:29:44.994Z,74.53
2023-05-06T06:39:47.262Z,71.00
2023-05-06T06:49:49.435Z,67.90
2023-05-06T06:59:55.076Z,66.05
2023-05-06T07:09:58.359Z,64.94
2023-05-06T07:20:02.854Z,63.04
2023-05-06T07:30:07.696Z,59.98
2023-05-06T07:40:16.413Z,59.36
2023-05-06T07:50:20.535Z,58.10
2023-05-06T08:00:28.648Z,56.87
2023-05-06T08:10:34.498Z,55.80
2023-05-06T08:20:38.825Z,54.11
2023-05-06T08:30:43.507Z,54.54
2023-05-06T08:40:46.306Z,53.49
2023-05-06T08:50:49.611Z,53.00
2023-05-06T09:00:55.589Z,52.39
2023-05-06T09:10:58.378Z,49.91
2023-05-06T09:21:02.970Z,49.16
2023-05-06T09:31:05.167Z,48.19
2023-05-06T09:41:12.629Z,48.26
2023-05-06T09:51:17.161Z,47.80
2023-05-06T10:01:32.652Z,48.09
2023-05-06T10:11:43.605Z,48.38
2023-05-06T10:21:51.980Z,47.89
2023-05-06T10:31:57.940Z,47.42
2023-05-06T10:42:00.618Z,47.18
2023-05-06T10:52:14.369Z,48.83
2023-05-06T11:02:21.168Z,51.06
2023-05-06T11:12:56.108Z,51.60
2023-05-06T11:23:02.009Z,51.70
2023-05-06T11:33:08.280Z,50.29
2023-05-06T11:43:14.668Z,51.77
2023-05-06T11:53:21.839Z,51.89
2023-05-06T12:03:26.253Z,53.81
2023-05-06T12:13:31.064Z,53.93
2023-05-06T12:23:34.229Z,56.88
2023-05-06T12:33:46.660Z,61.51
2023-05-06T12:43:49.757Z,66.14
2023-05-06T12:53:54.516Z,77.22
2023-05-06T13:03:57.855Z,82.02
2023-05-06T13:13:59.960Z,89.99
2023-05-06T13:24:07.074Z,100.00
2023-05-06T13:34:11.404Z,100.00
2023-05-06T13:44:20.761Z,100.00
2023-05-06T13:54:23.490Z,100.00
2023-05-06T14:04:26.759Z,100.00
2023-05-06T14:14:40.447Z,100.00
2023-05-06T14:24:42.653Z,100.00
2023-05-06T14:34:47.632Z,100.00
2023-05-06T14:44:52.858Z,100.00
2023-05-06T14:54:55.049Z,100.00
2023-05-06T15:04:57.483Z,100.00
2023-05-06T15:15:01.938Z,100.00
2023-05-06T15:25:16.671Z,100.00
2023-05-06T15:35:25.345Z,100.00
2023-05-06T15:45:28.168Z,100.00
2023-05-06T15:55:34.513Z,100.00
2023-05-06T16:05:45.749Z,100.00
2023-05-06T16:15:51.487Z,100.00
2023-05-06T16:25:59.941Z,100.00
2023-05-06T16:36:08.163Z,100.00
2023-05-06T16:46:10.825Z,100.00
2023-05-06T16:56:16.403Z,100.00
2023-05-06T17:06:18.969Z,100.00
2023-05-06T17:16:34.251Z,100.00
2023-05-06T17:26:49.732Z,100.00
2023-05-06T17:37:00.486Z,100.00
2023-05-06T17:47:06.114Z,100.00
2023-05-06T17:57:08.586Z,100.00
2023-05-06T18:07:16.679Z,100.00
2023-05-06T18:17:22.276Z,100.00
2023-05-06T18:27:25.834Z,100.00
2023-05-06T18:37:30.456Z,100.00
2023-05-06T18:47:33.878Z,100.00
2023-05-06T18:57:40.797Z,100.00
2023-05-06T19:07:43.046Z,100.00
2023-05-06T19:17:48.388Z,100.00
2023-05-06T19:27:52.978Z,100.00
2023-05-06T19:37:58.962Z,100.00
2023-05-06T19:48:02.010Z,100.00
2023-05-06T19:58:05.682Z,100.00
2023-05-06T20:08:11.491Z,100.00
2023-05-06T20:18:14.889Z,100.00
2023-05-06T20:28:18.735Z,100.00
2023-05-06T20:38:27.528Z,100.00
2023-05-06T20:48:32.513Z,100.00
2023-05-06T20:58:38.325Z,100.00
2023-05-06T21:08:46.724Z,100.00
2023-05-06T21:18:53.477Z,100.00
2023-05-06T21:28:58.344Z,100.00
2023-05-06T21:39:08.954Z,100.00
2023-05-06T21:49:13.488Z,100.00
2023-05-06T21:59:20.254Z,100.00
2023-05-06T22:09:27.226Z,100.00
2023-05-06T22:19:33.599Z,100.00
2023-05-06T22:29:36.367Z,100.00
2023-05-06T22:39:41.293Z,100.00
2023-05-06T22:49:46.078Z,100.00
2023-05-06T22:59:48.102Z,100.00
2023-05-06T23:09:50.186Z,100.00
2023-05-06T23:19:54.624Z,100.00
2023-05-06T23:29:59.298Z,100.00
2023-05-06T23:40:04.394Z,100.00
2023-05-06T23:50:09.711Z,100.00
